Aviation Digital Data Service (ADDS)

Output produced by METARs form (0405 UTC 19 August 2019)
found at http://www.aviationweather.gov/metar/data/
 
Forecast for: OPPS (PESHAWAR (CIV/MI, PK)
Text: TAF OPPS 182113Z 1900/2006 16015G25KT 4000 VCTS FEW030TCU/CB SCT040 SCT100
Forecast period: 0000 to 1000 UTC 19 August 2019
Forecast type: FROM: standard forecast or significant change
Winds: from the SSE (160 degrees) at 17 MPH (15 knots; 7.7 m/s)
gusting to 29 MPH (25 knots; 12.9 m/s)
Visibility: 2.49 miles (4.01 km)
Ceiling: at least 12,000 feet AGL
Clouds: scattered clouds at 4000 feet AGL
scattered clouds at 10000 feet AGL
Weather: VCTS  (thunderstorm in vicinity)
Text: BECMG 1910/1903 33015KT 5000 HZ FEW040 SCT100
Forecast period: 1000 UTC 19 August 2019 to 0600 UTC 20 August 2019
Forecast type: BECOMING: Conditions expected to become as follows by 0300 UTC 19 August 2019
Winds: from the NNW (330 degrees) at 17 MPH (15 knots; 7.7 m/s)
Visibility: 3 miles (5 km)
Ceiling: at least 12,000 feet AGL
Clouds: few clouds at 4000 feet AGL
scattered clouds at 10000 feet AGL
Weather: HZ  (haze)
Text: TEMPO 1918/1921 TSRA FEW030CB
Forecast period: 1800 to 2100 UTC 19 August 2019
Forecast type: TEMPORARY: The following changes expected for less than half the time period
Visibility: missing
Ceiling: at least 12,000 feet AGL
Clouds: few clouds at 3000 feet AGL
Weather: TSRA  (rain associated with thunderstorm(s))